Terminal Aerodrome Forecast
Issued by NWS Sterling, VA

Current Version | Previous Version | Graphics & Text | Print | Product List | Glossary On
Versions: 1 2 3 4 5 6 7 8 9 10 11 12 13 14 15 16 17 18 19 20 21 22 23
000
FTUS41 KLWX 010800 AAA
TAFDCA
TAF AMD
KDCA 010856Z 0109/0206 VRB04KT P6SM OVC120
     FM011300 16005KT P6SM BKN050
     FM012300 17007KT 6SM -RAPL OVC050
     FM020100 13006KT 6SM -RA OVC040
     FM020500 15006KT 4SM RA BR OVC015=

USA.gov is the U.S. government's official web portal to all federal, state and local government web resources and services.